Terminal Aerodrome Forecast
Issued by NWS Sterling, VA

Current Version | Previous Version | Text Only | Print | Product List | Glossary Off
Versions: 1 2 3 4 5 6 7 8 9 10 11 12 13 14 15 16 17 18 19 20 21 22

169
FTUS41 KLWX 051459 AAB
TAFIAD
TAF AMD
KIAD 051459Z 0515/0618 33016G25KT P6SM OVC040
     FM051700 32016G25KT P6SM FEW060
     FM060000 32006KT P6SM SKC
     FM060600 00000KT P6SM FEW250
     FM061500 20006KT P6SM SCT250=

USA.gov is the U.S. government's official web portal to all federal, state and local government web resources and services.